Time;durP1;ratioP1;P1;durP2;ratioP2;P2;SDS_P1;SDS_P2;PMS_P1;PMS_P2;Temp;Humidity;BMP_temperature;BMP_pressure;BME280_temperature;BME280_humidity;BME280_pressure;Samples;Min_cycle;Max_cycle;Signal;HPM_P1;HPM_P2
2022/10/29 00:00:53;;;;;;;3.08;1.73;;;;;;;19.89;59.33;102249.03;4934555;29;20056;-49
2022/10/29 00:03:20;;;;;;;5.28;2.45;;;;;;;19.87;58.69;102253.69;4934750;29;21927;-48
2022/10/29 00:06:03;;;;;;;3.88;2.00;;;;;;;19.87;59.09;102251.00;4932704;29;20051;-49
2022/10/29 00:08:32;;;;;;;4.68;1.90;;;;;;;19.87;59.57;102234.84;4934280;29;20134;-49
2022/10/29 00:11:06;;;;;;;4.13;2.10;;;;;;;19.87;58.75;102239.41;4934729;29;20757;-47
2022/10/29 00:13:33;;;;;;;3.85;2.20;;;;;;;19.86;59.25;102251.13;4935173;29;20332;-46
2022/10/29 00:16:07;;;;;;;4.82;2.05;;;;;;;19.85;58.82;102258.34;4936160;29;20063;-50
2022/10/29 00:18:33;;;;;;;;;;;;;;;19.85;59.39;102235.97;4936374;29;20048;-46
2022/10/29 00:21:05;;;;;;;6.80;2.60;;;;;;;19.87;59.52;102240.25;4935264;29;19930;-46
2022/10/29 00:23:31;;;;;;;2.90;1.73;;;;;;;19.83;58.99;102233.41;4936095;29;20051;-46
2022/10/29 00:25:58;;;;;;;6.47;2.53;;;;;;;19.84;59.46;102242.34;4936161;29;20072;-50
2022/10/29 00:28:25;;;;;;;5.70;1.88;;;;;;;19.84;59.56;102236.97;4936369;29;20052;-49
2022/10/29 00:30:52;;;;;;;4.07;2.15;;;;;;;19.82;59.33;102225.47;4937062;29;20407;-46
2022/10/29 00:33:19;;;;;;;5.75;1.95;;;;;;;19.82;58.94;102241.59;4935656;29;20106;-47
2022/10/29 00:35:59;;;;;;;5.78;1.90;;;;;;;19.80;59.28;102232.81;4934900;29;20063;-47
2022/10/29 00:38:26;;;;;;;6.05;2.10;;;;;;;19.80;59.43;102239.06;4932766;29;20540;-48
2022/10/29 00:40:53;;;;;;;3.03;1.80;;;;;;;19.81;59.00;102229.13;4929692;29;20106;-46
2022/10/29 00:43:22;;;;;;;4.35;2.10;;;;;;;19.80;59.00;102227.44;4932452;29;20050;-49
2022/10/29 00:46:00;;;;;;;4.05;1.65;;;;;;;19.78;59.04;102230.28;4929468;29;20070;-48
2022/10/29 00:48:30;;;;;;;5.30;2.15;;;;;;;19.80;59.38;102224.75;4931991;29;20043;-46
2022/10/29 00:50:59;;;;;;;2.95;1.80;;;;;;;19.80;58.99;102222.06;4932174;29;20059;-50
2022/10/29 00:53:29;;;;;;;3.30;1.52;;;;;;;19.78;59.26;102219.50;4932846;29;20044;-46
2022/10/29 00:55:57;;;;;;;3.63;1.55;;;;;;;19.79;59.13;102220.38;4932523;29;20063;-48
2022/10/29 00:58:25;;;;;;;3.17;1.75;;;;;;;19.77;59.08;102228.53;4934542;29;20055;-49
2022/10/29 01:00:52;;;;;;;3.83;1.92;;;;;;;19.78;58.93;102208.75;4932307;29;20058;-47
2022/10/29 01:03:18;;;;;;;3.42;1.73;;;;;;;19.77;58.84;102204.34;4932615;29;20579;-47
2022/10/29 01:05:46;;;;;;;6.32;2.15;;;;;;;19.76;59.19;102202.63;4932267;29;20067;-47
2022/10/29 01:08:14;;;;;;;3.30;2.03;;;;;;;19.75;58.95;102214.38;4932771;29;20336;-49
2022/10/29 01:10:46;;;;;;;3.15;1.70;;;;;;;19.75;59.61;102213.53;4932546;29;20083;-46
2022/10/29 01:13:40;;;;;;;3.78;1.92;;;;;;;19.71;58.99;102205.72;4929407;29;20052;-46
2022/10/29 01:16:21;;;;;;;5.32;2.22;;;;;;;19.73;58.80;102203.75;4931527;29;20058;-50
2022/10/29 01:19:08;;;;;;;2.60;1.65;;;;;;;19.73;59.44;102205.59;4931079;29;20141;-46
2022/10/29 01:21:41;;;;;;;4.03;1.88;;;;;;;19.72;59.57;102199.34;4928937;29;20082;-47
2022/10/29 01:24:28;;;;;;;4.63;1.95;;;;;;;19.70;58.91;102193.28;4932812;29;20118;-48
2022/10/29 01:27:15;;;;;;;3.72;1.67;;;;;;;19.72;59.30;102187.75;4930089;29;20043;-49
2022/10/29 01:30:04;;;;;;;3.90;1.88;;;;;;;19.70;59.45;102179.81;4933173;29;20058;-50
2022/10/29 01:33:09;;;;;;;5.38;1.80;;;;;;;19.69;59.51;102178.09;4930978;29;20439;-50
2022/10/29 01:36:14;;;;;;;2.30;1.38;;;;;;;19.68;58.98;102176.41;4932115;29;20055;-46
2022/10/29 01:39:22;;;;;;;3.38;1.92;;;;;;;19.68;58.78;102168.31;4930567;29;20066;-46
2022/10/29 01:42:09;;;;;;;3.20;1.65;;;;;;;19.68;59.15;102170.16;4937216;28;20051;-49
2022/10/29 01:44:39;;;;;;;3.85;1.67;;;;;;;19.66;59.11;102172.16;4931093;29;20058;-49
2022/10/29 01:47:23;;;;;;;5.10;2.08;;;;;;;19.66;59.40;102164.94;4932971;29;20047;-47
2022/10/29 01:49:59;;;;;;;3.92;1.73;;;;;;;19.65;59.15;102168.56;4932069;29;20442;-47
2022/10/29 01:52:28;;;;;;;4.90;2.50;;;;;;;19.67;59.14;102174.69;4929770;29;20043;-50
2022/10/29 01:54:54;;;;;;;3.55;2.08;;;;;;;19.66;59.24;102183.75;4931611;29;20058;-50
2022/10/29 01:57:24;;;;;;;2.33;1.60;;;;;;;19.64;58.97;102172.25;4930049;29;20047;-50
2022/10/29 01:59:51;;;;;;;2.50;1.70;;;;;;;19.64;59.09;102161.50;4931141;29;20165;-50
2022/10/29 02:02:32;;;;;;;3.92;1.60;;;;;;;19.64;59.62;102164.19;4933396;29;20048;-47
2022/10/29 02:05:24;;;;;;;2.78;1.60;;;;;;;19.64;59.88;102166.03;4933746;29;20392;-47
2022/10/29 02:07:59;;;;;;;2.88;1.65;;;;;;;19.64;59.44;102166.03;4933120;29;20051;-48
2022/10/29 02:10:46;;;;;;;2.78;1.60;;;;;;;19.62;59.50;102155.41;4934777;29;20052;-45
2022/10/29 02:13:16;;;;;;;3.95;1.90;;;;;;;19.63;59.42;102154.44;4933396;29;20047;-49
2022/10/29 02:15:48;;;;;;;3.55;1.73;;;;;;;19.64;59.37;102149.91;4933837;29;20174;-47
2022/10/29 02:18:16;;;;;;;2.90;1.60;;;;;;;19.63;59.43;102143.66;4934901;29;20051;-48
2022/10/29 02:20:44;;;;;;;4.57;1.70;;;;;;;19.61;59.39;102140.25;4933217;29;20043;-49
2022/10/29 02:23:11;;;;;;;2.78;1.63;;;;;;;19.62;59.48;102150.03;4933233;29;20395;-46
2022/10/29 02:25:37;;;;;;;4.55;1.85;;;;;;;19.61;59.48;102158.19;4932306;29;20054;-47
2022/10/29 02:28:04;;;;;;;5.05;1.90;;;;;;;19.60;59.04;102151.97;4931528;29;20078;-49
2022/10/29 02:30:31;;;;;;;6.05;1.95;;;;;;;19.60;59.18;102151.97;4933229;29;20091;-44
2022/10/29 02:32:57;;;;;;;3.25;1.90;;;;;;;19.59;59.57;102147.56;4931164;29;20048;-45
2022/10/29 02:35:24;;;;;;;4.05;1.75;;;;;;;19.59;59.37;102150.25;4932283;29;20051;-47
2022/10/29 02:37:51;;;;;;;3.10;1.83;;;;;;;19.57;59.23;102149.53;4930809;29;20048;-47
2022/10/29 02:40:17;;;;;;;5.78;2.22;;;;;;;19.57;59.07;102146.84;4930909;29;20050;-47
2022/10/29 02:42:44;;;;;;;2.72;1.70;;;;;;;19.56;59.12;102134.38;4931212;29;20052;-47
2022/10/29 02:45:10;;;;;;;2.70;1.40;;;;;;;19.57;59.10;102130.69;4930974;29;20403;-46
2022/10/29 02:47:37;;;;;;;3.40;1.70;;;;;;;19.55;58.99;102119.25;4931022;29;20047;-48
2022/10/29 02:50:04;;;;;;;2.63;1.90;;;;;;;19.56;59.50;102112.03;4930938;29;20048;-47
2022/10/29 02:52:30;;;;;;;2.90;1.50;;;;;;;19.56;59.58;102118.25;4930451;29;20494;-49
2022/10/29 02:54:57;;;;;;;3.13;1.80;;;;;;;19.57;59.25;102117.25;4932647;29;20055;-47
2022/10/29 02:57:23;;;;;;;3.83;1.65;;;;;;;19.55;59.37;102118.41;4929162;29;20106;-50
2022/10/29 02:59:50;;;;;;;4.13;1.77;;;;;;;19.55;59.42;102107.63;4929705;29;20071;-49
2022/10/29 03:02:16;;;;;;;2.75;1.52;;;;;;;19.55;59.49;102110.31;4930073;29;20056;-50
2022/10/29 03:04:43;;;;;;;2.53;1.55;;;;;;;19.54;59.75;102111.28;4929272;29;20055;-49
2022/10/29 03:07:10;;;;;;;2.72;1.70;;;;;;;19.53;59.04;102113.13;4929596;29;20040;-49
2022/10/29 03:09:36;;;;;;;3.45;1.85;;;;;;;19.53;59.55;102109.59;4930885;29;20059;-47
2022/10/29 03:12:03;;;;;;;2.58;1.60;;;;;;;19.54;59.25;102108.59;4929602;29;20048;-46
2022/10/29 03:14:29;;;;;;;3.25;1.67;;;;;;;19.53;59.11;102121.19;4932202;29;20059;-47
2022/10/29 03:16:56;;;;;;;1.67;1.20;;;;;;;19.51;59.57;102128.56;4927796;29;20052;-48
2022/10/29 03:19:22;;;;;;;2.53;1.33;;;;;;;19.51;59.26;102128.56;4930226;29;20048;-46
2022/10/29 03:21:49;;;;;;;3.80;1.90;;;;;;;19.52;59.69;102126.72;4930337;29;20060;-48
2022/10/29 03:24:15;;;;;;;2.78;1.52;;;;;;;19.49;59.71;102117.91;4933712;29;20715;-45
2022/10/29 03:26:42;;;;;;;3.80;1.83;;;;;;;19.51;59.10;102123.19;4933355;29;20072;-46
2022/10/29 03:29:08;;;;;;;2.75;1.52;;;;;;;19.51;59.28;102125.88;4934424;29;20070;-45
2022/10/29 03:31:35;;;;;;;2.38;1.45;;;;;;;19.49;59.32;102119.75;4934343;29;20489;-46
2022/10/29 03:34:01;;;;;;;2.85;1.75;;;;;;;19.51;59.80;102125.03;4934806;29;20055;-46
2022/10/29 03:36:29;;;;;;;4.13;1.88;;;;;;;19.51;59.18;102127.72;4933453;29;20052;-45
2022/10/29 03:38:55;;;;;;;3.45;1.50;;;;;;;19.50;59.65;102126.88;4930333;29;20056;-49
2022/10/29 03:41:21;;;;;;;2.17;1.33;;;;;;;19.50;59.20;102118.78;4933509;29;20387;-48
2022/10/29 03:43:48;;;;;;;2.83;1.63;;;;;;;19.49;59.67;102104.47;4932551;29;20074;-47
2022/10/29 03:46:15;;;;;;;2.63;1.67;;;;;;;19.49;59.38;102100.94;4932588;29;20077;-45
2022/10/29 03:48:41;;;;;;;2.50;1.60;;;;;;;19.49;58.92;102107.16;4933956;29;20443;-49
2022/10/29 03:51:09;;;;;;;2.60;1.67;;;;;;;19.47;59.00;102093.00;4931980;29;20052;-46
2022/10/29 03:53:36;;;;;;;3.78;1.73;;;;;;;19.49;59.67;102101.78;4932787;29;20415;-47
2022/10/29 03:56:03;;;;;;;3.25;1.80;;;;;;;19.50;59.33;102097.28;4932806;29;20229;-49
2022/10/29 03:58:29;;;;;;;3.78;1.45;;;;;;;19.48;59.14;102101.94;4933288;29;20056;-46
2022/10/29 04:00:58;;;;;;;3.83;1.73;;;;;;;19.48;59.65;102099.22;4930600;29;20070;-49
2022/10/29 04:03:26;;;;;;;3.10;1.80;;;;;;;19.48;58.96;102099.22;4934080;29;20055;-46
2022/10/29 04:05:53;;;;;;;2.65;1.35;;;;;;;19.48;59.08;102100.09;4934641;29;20454;-49
2022/10/29 04:08:20;;;;;;;2.45;1.63;;;;;;;19.47;58.93;102098.38;4935151;29;20074;-46
2022/10/29 04:10:48;;;;;;;2.60;1.75;;;;;;;19.48;59.38;102099.22;4937080;29;20364;-46
2022/10/29 04:13:15;;;;;;;2.35;1.60;;;;;;;19.47;59.56;102098.38;4935721;29;20408;-48
2022/10/29 04:15:42;;;;;;;2.67;1.60;;;;;;;19.47;59.33;102100.22;4936678;29;20056;-46
2022/10/29 04:18:09;;;;;;;3.08;1.67;;;;;;;19.47;58.79;102105.59;4936390;29;20052;-46
2022/10/29 04:20:37;;;;;;;2.85;1.60;;;;;;;19.48;58.89;102099.22;4933168;29;20048;-46
2022/10/29 04:23:23;;;;;;;3.20;1.30;;;;;;;19.48;59.60;102096.53;4934634;29;20409;-46
2022/10/29 04:26:10;;;;;;;2.40;1.60;;;;;;;19.48;59.08;102100.09;4936462;29;20162;-47
2022/10/29 04:28:56;;;;;;;1.80;1.40;;;;;;;19.48;59.04;102096.53;4936221;29;20391;-48
2022/10/29 04:31:23;;;;;;;2.35;1.40;;;;;;;19.47;59.04;102094.84;4937694;29;20070;-47
2022/10/29 04:33:51;;;;;;;2.95;1.60;;;;;;;19.47;58.95;102100.22;4935633;29;20056;-46
2022/10/29 04:36:18;;;;;;;2.47;1.30;;;;;;;19.47;59.68;102101.06;4932777;29;20052;-46
2022/10/29 04:38:44;;;;;;;2.42;1.50;;;;;;;19.46;59.67;102087.78;4930520;29;20056;-50
2022/10/29 04:41:11;;;;;;;3.15;1.63;;;;;;;19.47;59.10;102086.78;4932638;29;20090;-48
2022/10/29 04:43:37;;;;;;;2.97;2.15;;;;;;;19.46;59.42;102077.03;4932066;29;20048;-49
2022/10/29 04:46:04;;;;;;;2.22;1.27;;;;;;;19.47;59.28;102076.03;4932299;28;20443;-46
2022/10/29 04:48:30;;;;;;;2.60;1.50;;;;;;;19.47;58.90;102076.03;4932445;29;20055;-46
2022/10/29 04:50:57;;;;;;;2.33;1.50;;;;;;;19.47;59.52;102076.88;4932583;29;20055;-49
2022/10/29 04:53:23;;;;;;;3.72;1.55;;;;;;;19.47;58.94;102073.34;4931327;29;20051;-49
2022/10/29 04:55:50;;;;;;;2.42;1.30;;;;;;;19.47;59.00;102081.41;4932790;29;20347;-47
2022/10/29 04:58:18;;;;;;;3.58;1.88;;;;;;;19.47;59.15;102081.41;4930322;29;20870;-48
2022/10/29 05:00:45;;;;;;;5.35;1.90;;;;;;;19.46;59.42;102077.03;4932282;29;20407;-48
2022/10/29 05:03:12;;;;;;;2.30;1.40;;;;;;;19.46;58.95;102074.34;4932854;29;20071;-47
2022/10/29 05:05:39;;;;;;;2.15;1.40;;;;;;;19.46;58.93;102077.03;4932198;29;20063;-46
2022/10/29 05:08:08;;;;;;;3.45;1.63;;;;;;;19.45;59.16;102062.69;4930192;29;20447;-50
2022/10/29 05:10:36;;;;;;;2.65;1.38;;;;;;;19.46;59.30;102063.56;4931524;29;20078;-48
2022/10/29 05:13:06;;;;;;;1.92;1.30;;;;;;;19.45;59.53;102057.31;4931442;29;20383;-48
2022/10/29 05:15:33;;;;;;;2.70;1.42;;;;;;;19.45;58.93;102051.94;4930161;29;20062;-48
2022/10/29 05:18:00;;;;;;;3.10;1.88;;;;;;;19.45;59.41;102056.47;4932105;29;20051;-45
2022/10/29 05:20:28;;;;;;;1.92;1.40;;;;;;;19.44;58.96;102055.63;4930451;29;20043;-47
2022/10/29 05:23:12;;;;;;;2.55;1.70;;;;;;;19.44;59.12;102052.09;4931450;29;20056;-48
2022/10/29 05:25:40;;;;;;;2.35;1.48;;;;;;;19.44;59.02;102044.03;4932455;29;20431;-47
2022/10/29 05:28:11;;;;;;;2.78;1.30;;;;;;;19.44;59.20;102046.72;4932573;29;20039;-47
2022/10/29 05:30:38;;;;;;;2.30;1.40;;;;;;;19.43;59.32;102048.56;4934580;29;20616;-47
2022/10/29 05:33:09;;;;;;;2.90;1.50;;;;;;;19.44;59.39;102041.34;4932483;29;20052;-50
2022/10/29 05:35:36;;;;;;;2.58;1.50;;;;;;;19.43;59.25;102040.47;4929998;29;20055;-49
2022/10/29 05:38:03;;;;;;;1.83;1.33;;;;;;;19.43;59.15;102036.94;4928693;29;20055;-49
2022/10/29 05:40:30;;;;;;;2.67;1.35;;;;;;;19.44;59.33;102042.19;4932267;29;20058;-48
2022/10/29 05:42:57;;;;;;;2.35;1.30;;;;;;;19.44;59.44;102038.66;4931357;29;20055;-47
2022/10/29 05:45:24;;;;;;;1.90;1.30;;;;;;;19.44;59.46;102041.34;4930756;29;20055;-48
2022/10/29 05:47:58;;;;;;;3.50;1.52;;;;;;;19.43;59.33;102036.94;4926549;29;20055;-46
2022/10/29 05:50:25;;;;;;;3.65;1.60;;;;;;;19.43;59.37;102035.09;4928389;29;20139;-47
2022/10/29 05:52:59;;;;;;;1.90;1.20;;;;;;;19.42;59.00;102035.25;4924475;29;20110;-48
2022/10/29 05:55:27;;;;;;;2.45;1.85;;;;;;;19.43;58.87;102036.94;4925642;29;20048;-46
2022/10/29 05:57:57;;;;;;;2.55;1.23;;;;;;;19.43;59.58;102042.31;4930163;29;21794;-47
2022/10/29 06:00:26;;;;;;;1.70;1.40;;;;;;;19.45;59.01;102040.34;4928068;29;20055;-48
2022/10/29 06:02:53;;;;;;;2.15;1.45;;;;;;;19.44;59.35;102041.34;4930614;29;20083;-46
2022/10/29 06:05:20;;;;;;;3.15;1.23;;;;;;;19.43;59.40;102051.25;4932363;29;20051;-46
2022/10/29 06:07:53;;;;;;;2.67;1.95;;;;;;;19.42;59.35;102052.22;4933511;29;20432;-46
2022/10/29 06:10:20;;;;;;;2.13;1.60;;;;;;;19.43;58.97;102042.31;4933245;29;20427;-48
2022/10/29 06:12:48;;;;;;;5.32;1.80;;;;;;;19.42;58.92;102040.63;4934766;29;20059;-47
2022/10/29 06:15:15;;;;;;;3.17;1.70;;;;;;;19.42;59.16;102046.84;4932258;29;20058;-46
2022/10/29 06:17:43;;;;;;;1.92;1.50;;;;;;;19.42;59.37;102046.00;4934758;29;20071;-48
2022/10/29 06:20:11;;;;;;;3.60;1.45;;;;;;;19.42;59.30;102025.34;4929589;29;20055;-49
2022/10/29 06:22:37;;;;;;;2.58;1.50;;;;;;;19.43;59.02;102034.25;4931913;29;20039;-46
2022/10/29 06:25:04;;;;;;;3.25;1.42;;;;;;;19.43;59.39;102036.94;4931679;29;20074;-46
2022/10/29 06:27:31;;;;;;;2.30;1.50;;;;;;;19.42;59.11;102038.78;4928604;29;20052;-48
2022/10/29 06:29:57;;;;;;;2.38;1.50;;;;;;;19.41;59.33;102037.06;4928122;29;20079;-48
2022/10/29 06:32:24;;;;;;;2.70;1.40;;;;;;;19.42;58.96;102028.03;4925324;29;20102;-48
2022/10/29 06:34:50;;;;;;;2.72;1.70;;;;;;;19.42;58.95;102033.41;4929506;29;20082;-47
2022/10/29 06:37:17;;;;;;;4.03;1.70;;;;;;;19.41;59.42;102031.69;4925533;29;20051;-49
2022/10/29 06:39:43;;;;;;;2.42;1.65;;;;;;;19.41;59.02;102026.31;4926798;29;20048;-45
2022/10/29 06:42:10;;;;;;;3.30;1.35;;;;;;;19.42;58.72;102027.19;4928844;29;21687;-46
2022/10/29 06:44:36;;;;;;;2.67;1.40;;;;;;;19.42;59.00;102024.50;4923945;29;20067;-46
2022/10/29 06:47:03;;;;;;;2.40;1.75;;;;;;;19.42;59.42;102013.75;4931646;29;20051;-48
2022/10/29 06:49:30;;;;;;;3.30;1.80;;;;;;;19.41;58.81;102015.56;4930894;29;20568;-46
2022/10/29 06:51:56;;;;;;;3.20;1.80;;;;;;;19.41;58.96;102017.41;4931407;29;20047;-46
2022/10/29 06:54:23;;;;;;;2.17;1.70;;;;;;;19.41;59.42;102006.63;4932465;29;20056;-49
2022/10/29 06:56:49;;;;;;;2.88;1.85;;;;;;;19.42;59.37;102011.06;4928193;29;20056;-49
2022/10/29 06:59:16;;;;;;;3.40;2.15;;;;;;;19.42;58.91;102016.44;4929691;29;20064;-46
2022/10/29 07:01:42;;;;;;;3.22;1.98;;;;;;;19.41;58.84;102012.00;4934552;29;20059;-48
2022/10/29 07:04:09;;;;;;;3.58;1.70;;;;;;;19.42;59.42;102016.44;4926805;29;20111;-46
2022/10/29 07:06:35;;;;;;;2.67;1.80;;;;;;;19.43;59.71;102018.97;4926938;29;20044;-48
2022/10/29 07:09:02;;;;;;;2.85;2.05;;;;;;;19.43;59.03;102007.38;4929078;29;20040;-50
2022/10/29 07:11:28;;;;;;;3.25;1.75;;;;;;;19.43;59.39;102007.38;4927967;29;20048;-50
2022/10/29 07:13:55;;;;;;;4.32;2.10;;;;;;;19.43;59.12;102007.38;4927080;29;20051;-49
2022/10/29 07:16:21;;;;;;;2.70;1.88;;;;;;;19.42;58.93;102011.06;4931983;29;20047;-46
2022/10/29 07:18:48;;;;;;;5.00;2.15;;;;;;;19.43;59.61;102008.22;4931389;29;20052;-47
2022/10/29 07:21:14;;;;;;;2.78;1.83;;;;;;;19.43;59.26;101999.31;4927614;29;20066;-47
2022/10/29 07:23:41;;;;;;;3.45;2.30;;;;;;;19.44;59.68;101992.94;4932084;29;20099;-47
2022/10/29 07:26:07;;;;;;;2.85;1.90;;;;;;;19.45;58.97;102000.00;4931725;29;20058;-47
2022/10/29 07:28:34;;;;;;;3.80;2.25;;;;;;;19.45;59.34;102000.00;4930415;29;20435;-45
2022/10/29 07:31:00;;;;;;;3.80;2.33;;;;;;;19.45;59.50;102003.53;4933189;29;20094;-48
2022/10/29 07:33:31;;;;;;;3.42;1.92;;;;;;;19.46;59.65;102001.72;4930998;29;20062;-48
2022/10/29 07:35:58;;;;;;;2.17;1.63;;;;;;;19.46;59.16;102001.72;4932211;29;20060;-47
2022/10/29 07:38:25;;;;;;;2.65;2.05;;;;;;;19.47;59.46;102003.44;4931832;29;20044;-46
2022/10/29 07:40:52;;;;;;;2.92;2.20;;;;;;;19.46;59.37;102007.97;4930314;29;20056;-48
2022/10/29 07:43:20;;;;;;;3.63;2.22;;;;;;;19.47;59.12;102011.50;4929602;29;20174;-46
2022/10/29 07:45:49;;;;;;;3.28;2.25;;;;;;;19.47;59.46;102008.81;4929621;29;20051;-49
2022/10/29 07:48:16;;;;;;;5.20;2.30;;;;;;;19.48;58.89;102008.66;4934236;29;20050;-47
2022/10/29 07:50:43;;;;;;;3.15;2.10;;;;;;;19.49;59.62;102002.28;4936852;29;20149;-48
2022/10/29 07:53:10;;;;;;;3.33;1.92;;;;;;;19.49;59.51;102002.28;4931735;29;20062;-49
2022/10/29 07:55:36;;;;;;;4.75;2.13;;;;;;;19.51;59.55;101990.56;4930675;29;20051;-47
2022/10/29 07:58:05;;;;;;;4.90;2.45;;;;;;;19.52;58.94;101992.25;4932161;29;20059;-49
2022/10/29 08:00:34;;;;;;;3.25;2.28;;;;;;;19.54;59.25;101982.19;4934949;29;20130;-48
2022/10/29 08:03:01;;;;;;;4.75;2.40;;;;;;;19.55;59.21;101982.09;4933631;29;20048;-47
2022/10/29 08:05:29;;;;;;;5.13;2.47;;;;;;;19.55;59.06;101976.72;4934372;29;20055;-46
2022/10/29 08:07:56;;;;;;;2.95;2.17;;;;;;;19.57;58.88;101963.97;4928983;29;20051;-48
2022/10/29 08:10:24;;;;;;;4.70;2.50;;;;;;;19.59;59.43;101970.06;4928327;29;20083;-47
2022/10/29 08:13:01;;;;;;;2.80;1.90;;;;;;;19.60;59.17;101973.59;4929099;29;20044;-46
2022/10/29 08:15:29;;;;;;;4.35;2.33;;;;;;;19.62;59.06;101988.66;4930649;29;20142;-45
2022/10/29 08:17:56;;;;;;;4.30;2.63;;;;;;;19.64;59.69;101981.28;4929842;29;20052;-48
2022/10/29 08:20:25;;;;;;;14.80;3.42;;;;;;;19.66;58.83;101995.47;4928990;29;20343;-46
2022/10/29 08:22:52;;;;;;;7.13;2.78;;;;;;;19.68;59.02;102000.69;4931574;29;20474;-46
2022/10/29 08:25:19;;;;;;;17.67;3.75;;;;;;;19.70;59.46;101996.91;4929311;29;20047;-48
2022/10/29 08:28:00;;;;;;;12.02;3.25;;;;;;;19.71;59.36;101989.69;4930213;29;20055;-46
2022/10/29 08:30:27;;;;;;;17.85;3.95;;;;;;;19.72;58.91;101984.16;4929930;29;20050;-47
2022/10/29 08:32:54;;;;;;;21.80;3.40;;;;;;;19.72;59.14;101984.16;4926773;29;20064;-50
2022/10/29 08:35:21;;;;;;;10.75;3.00;;;;;;;19.74;58.65;101981.34;4928921;29;20439;-46
2022/10/29 08:37:47;;;;;;;12.98;3.30;;;;;;;19.76;58.53;101978.50;4928424;29;20193;-49
2022/10/29 08:40:27;;;;;;;5.93;3.15;;;;;;;19.77;59.42;101974.81;4928008;29;20056;-49
2022/10/29 08:43:23;;;;;;;7.95;3.13;;;;;;;19.78;59.12;101981.88;4927871;29;20066;-48
2022/10/29 08:45:52;;;;;;;5.93;3.15;;;;;;;19.79;59.02;101992.53;4928009;29;20066;-46
2022/10/29 08:48:25;;;;;;;9.73;3.20;;;;;;;19.80;59.00;101999.59;4927943;29;20058;-46
2022/10/29 08:50:58;;;;;;;8.63;3.15;;;;;;;19.81;58.79;101990.53;4928461;29;20055;-47
2022/10/29 08:53:35;;;;;;;7.70;3.35;;;;;;;19.82;59.02;101994.97;4928859;29;20054;-47
2022/10/29 08:56:05;;;;;;;10.20;4.00;;;;;;;19.83;58.98;101991.28;4948944;28;20058;-48
2022/10/29 08:58:51;;;;;;;7.43;3.30;;;;;;;19.85;59.14;101988.44;4951067;28;20059;-48
2022/10/29 09:01:20;;;;;;;9.50;4.13;;;;;;;19.86;58.85;101984.75;4952113;28;20054;-50
2022/10/29 09:03:49;;;;;;;9.15;3.67;;;;;;;19.85;59.21;101981.22;4960703;28;20138;-47
2022/10/29 09:06:26;;;;;;;10.95;3.75;;;;;;;19.85;58.74;101969.59;4955928;28;20043;-48
2022/10/29 09:09:27;;;;;;;12.70;3.70;;;;;;;19.86;58.88;101976.66;4956212;28;20051;-48
2022/10/29 09:12:29;;;;;;;14.52;4.85;;;;;;;19.87;58.97;101976.56;4957754;28;20054;-49
2022/10/29 09:15:17;;;;;;;8.65;4.38;;;;;;;19.88;59.04;101963.94;4955183;28;20058;-47
2022/10/29 09:17:58;;;;;;;14.68;4.32;;;;;;;19.89;58.98;101960.25;4953056;28;20063;-49
2022/10/29 09:20:49;;;;;;;11.10;4.70;;;;;;;19.88;58.94;101954.03;4952505;28;20109;-46
2022/10/29 09:23:54;;;;;;;7.35;4.30;;;;;;;19.89;58.34;101952.19;4956285;28;20058;-49
2022/10/29 09:26:38;;;;;;;9.18;4.72;;;;;;;19.92;58.64;101951.91;4951543;28;20051;-46
2022/10/29 09:29:32;;;;;;;6.20;3.55;;;;;;;19.92;58.64;101955.44;4952344;28;20658;-46
2022/10/29 09:32:01;;;;;;;8.43;3.92;;;;;;;19.93;58.39;101951.75;4949543;28;20051;-45
2022/10/29 09:34:33;;;;;;;8.25;3.83;;;;;;;19.93;58.49;101953.59;4954046;28;20536;-45
2022/10/29 09:36:59;;;;;;;5.63;3.72;;;;;;;19.93;58.22;101954.47;4951946;28;20061;-49
2022/10/29 09:39:37;;;;;;;9.45;4.10;;;;;;;19.93;58.29;101950.91;4953005;28;20050;-46
2022/10/29 09:42:10;;;;;;;9.35;3.95;;;;;;;19.94;58.57;101936.50;4948519;28;20059;-50
2022/10/29 09:44:44;;;;;;;6.28;4.22;;;;;;;19.95;58.86;101932.81;4946931;28;20146;-49
2022/10/29 09:47:30;;;;;;;10.95;3.80;;;;;;;19.94;58.72;101925.75;4951719;28;20054;-46
2022/10/29 09:50:10;;;;;;;5.53;3.50;;;;;;;19.96;58.12;101910.28;4954613;28;20057;-49
2022/10/29 09:52:40;;;;;;;7.93;4.05;;;;;;;19.95;58.50;101890.59;4952029;28;20066;-48
2022/10/29 09:55:17;;;;;;;7.80;4.53;;;;;;;19.95;58.13;101898.66;4946577;28;20058;-47
2022/10/29 09:57:44;;;;;;;8.45;4.13;;;;;;;19.95;58.46;101895.97;4956859;28;20551;-48
2022/10/29 10:00:19;;;;;;;13.07;5.63;;;;;;;19.96;58.23;101899.53;4950024;28;20047;-49
2022/10/29 10:03:03;;;;;;;12.73;6.15;;;;;;;19.96;58.88;101913.81;4952764;28;20347;-46
2022/10/29 10:05:33;;;;;;;17.27;6.43;;;;;;;19.97;59.00;101906.59;4950122;28;20051;-49
2022/10/29 10:08:11;;;;;;;10.10;5.32;;;;;;;19.99;58.53;101901.94;4954686;28;20055;-45
2022/10/29 10:10:59;;;;;;;15.60;7.35;;;;;;;20.00;58.35;101909.00;4949510;28;20423;-46
2022/10/29 10:13:29;;;;;;;12.35;6.68;;;;;;;20.02;58.67;101920.50;4954657;28;20058;-46
2022/10/29 10:16:03;;;;;;;11.02;6.32;;;;;;;20.04;58.40;101920.34;4954632;28;20051;-45
2022/10/29 10:18:29;;;;;;;10.88;5.80;;;;;;;20.05;58.79;101922.03;4951284;28;20427;-46
2022/10/29 10:21:09;;;;;;;12.93;6.25;;;;;;;20.05;58.53;101916.66;4954368;28;20735;-48
2022/10/29 10:23:45;;;;;;;11.05;6.90;;;;;;;20.06;58.54;101911.16;4957239;28;20047;-47
2022/10/29 10:26:27;;;;;;;13.07;7.35;;;;;;;20.06;58.43;101900.38;4956337;28;20098;-46
2022/10/29 10:29:22;;;;;;;10.38;5.82;;;;;;;20.10;58.42;101903.63;4950198;28;20051;-48
2022/10/29 10:32:15;;;;;;;13.55;6.38;;;;;;;20.12;58.79;101891.72;4954692;28;20071;-47
2022/10/29 10:34:41;;;;;;;14.15;7.05;;;;;;;20.15;58.95;101887.91;4959216;28;20069;-49
2022/10/29 10:37:08;;;;;;;14.68;7.45;;;;;;;20.16;58.28;101889.59;4961589;28;20051;-46
2022/10/29 10:39:40;;;;;;;16.20;7.20;;;;;;;20.17;58.46;101888.59;4965018;28;20047;-46
2022/10/29 10:42:21;;;;;;;13.88;6.75;;;;;;;20.17;59.29;101875.16;4960381;28;20051;-46
2022/10/29 10:44:51;;;;;;;15.73;7.45;;;;;;;20.18;58.73;101864.25;4964582;28;20047;-49
2022/10/29 10:47:20;;;;;;;12.30;7.47;;;;;;;20.21;58.47;101865.78;4961022;28;20086;-49
2022/10/29 10:49:47;;;;;;;12.48;6.72;;;;;;;20.23;58.79;101868.38;4962887;28;20549;-47
2022/10/29 10:52:18;;;;;;;11.65;6.65;;;;;;;20.25;58.98;101882.50;4960272;28;20055;-47
2022/10/29 10:55:01;;;;;;;13.15;6.82;;;;;;;20.26;58.63;101871.63;4960193;28;20066;-49
2022/10/29 10:57:33;;;;;;;11.83;6.40;;;;;;;20.29;58.80;101875.84;4960570;28;20051;-50
2022/10/29 11:00:03;;;;;;;10.20;6.25;;;;;;;20.31;59.15;101876.56;4964271;28;20482;-45
2022/10/29 11:02:43;;;;;;;10.95;6.28;;;;;;;20.32;58.51;101880.97;4958350;28;20382;-49
2022/10/29 11:05:18;;;;;;;14.82;7.72;;;;;;;20.33;59.22;101886.19;4958841;28;20049;-48
2022/10/29 11:08:00;;;;;;;10.55;6.03;;;;;;;20.35;59.14;101894.13;4963441;28;20066;-48
2022/10/29 11:10:34;;;;;;;11.55;6.57;;;;;;;20.37;58.35;101892.13;4958832;28;20046;-47
2022/10/29 11:13:05;;;;;;;12.65;6.28;;;;;;;20.37;58.75;101892.97;4963527;28;20401;-46
2022/10/29 11:15:53;;;;;;;10.43;5.97;;;;;;;20.37;58.51;101886.75;4963628;28;20047;-48
2022/10/29 11:18:29;;;;;;;14.35;6.47;;;;;;;20.40;58.99;101895.41;4961647;28;20051;-48
2022/10/29 11:21:14;;;;;;;10.65;5.65;;;;;;;20.40;58.63;101879.25;4960784;28;20457;-47
2022/10/29 11:23:48;;;;;;;10.18;6.10;;;;;;;20.41;58.20;101875.53;4961887;28;20047;-48
2022/10/29 11:26:39;;;;;;;11.20;6.50;;;;;;;20.41;58.93;101872.84;4959622;28;20051;-49
2022/10/29 11:29:27;;;;;;;9.98;5.80;;;;;;;20.41;58.38;101864.78;4962223;28;20062;-48
2022/10/29 11:32:30;;;;;;;11.45;6.10;;;;;;;20.42;58.24;101854.84;4957962;28;20106;-50
2022/10/29 11:35:30;;;;;;;10.88;6.15;;;;;;;20.43;58.22;101840.41;4954262;28;20060;-47
2022/10/29 11:38:19;;;;;;;12.55;5.97;;;;;;;20.43;58.32;101835.03;4952292;28;20062;-49
2022/10/29 11:41:10;;;;;;;10.25;6.22;;;;;;;20.43;58.72;101838.56;4959411;28;20426;-50
2022/10/29 11:43:36;;;;;;;8.98;5.63;;;;;;;20.44;58.45;101845.66;4957318;28;20055;-49
2022/10/29 11:46:16;;;;;;;9.20;5.50;;;;;;;20.44;58.64;101839.41;4962405;28;20394;-46